createdAt,value
2018-06-08T00:00:07.066Z,23.93
2018-06-08T00:02:36.121Z,29.77
2018-06-08T00:05:06.775Z,23.67
2018-06-08T00:07:35.930Z,25.33
2018-06-08T00:10:04.901Z,23.27
2018-06-08T00:12:34.122Z,24.30
2018-06-08T00:15:07.845Z,23.73
2018-06-08T00:17:36.917Z,23.47
2018-06-08T00:20:06.257Z,24.40
2018-06-08T00:22:35.185Z,62.10
2018-06-08T00:25:07.803Z,23.40
2018-06-08T00:27:36.933Z,22.83
2018-06-08T00:30:06.215Z,22.67
2018-06-08T00:32:35.157Z,22.97
2018-06-08T00:35:08.090Z,23.87
2018-06-08T00:37:37.180Z,28.80
2018-06-08T00:40:06.689Z,22.63
2018-06-08T00:42:36.215Z,24.83
2018-06-08T00:45:07.017Z,26.83
2018-06-08T00:47:36.122Z,24.27
2018-06-08T00:50:05.399Z,25.37
2018-06-08T00:52:34.518Z,24.40
2018-06-08T00:55:07.080Z,38.80
2018-06-08T00:57:36.191Z,28.50
2018-06-08T01:00:05.389Z,28.87
2018-06-08T01:02:34.583Z,27.50
2018-06-08T01:05:08.577Z,26.43
2018-06-08T01:07:37.685Z,25.73
2018-06-08T01:10:06.767Z,27.10
2018-06-08T01:12:35.878Z,27.67
2018-06-08T01:15:08.214Z,26.40
2018-06-08T01:17:37.167Z,27.73
2018-06-08T01:20:06.628Z,26.97
2018-06-08T01:22:36.257Z,26.30
2018-06-08T01:25:08.819Z,25.73
2018-06-08T01:27:37.937Z,26.67
2018-06-08T01:30:07.107Z,26.20
2018-06-08T01:32:36.345Z,26.33
2018-06-08T01:35:09.394Z,25.67
2018-06-08T01:37:38.369Z,25.83
2018-06-08T01:40:07.596Z,25.77
2018-06-08T01:42:36.708Z,24.80
2018-06-08T01:45:10.586Z,25.20
2018-06-08T01:47:39.704Z,24.87
2018-06-08T01:50:08.624Z,24.70
2018-06-08T01:52:37.683Z,23.00
2018-06-08T01:55:08.499Z,25.37
2018-06-08T01:57:37.689Z,23.10
2018-06-08T02:00:06.908Z,22.23
2018-06-08T02:02:36.015Z,22.13
2018-06-08T02:05:08.372Z,22.87
2018-06-08T02:07:37.583Z,22.53
2018-06-08T02:10:06.975Z,21.57
2018-06-08T02:12:36.201Z,21.30
2018-06-08T02:15:08.295Z,21.40
2018-06-08T02:17:37.439Z,20.80
2018-06-08T02:20:06.562Z,20.53
2018-06-08T02:22:35.835Z,20.73
2018-06-08T02:25:08.980Z,22.37
2018-06-08T02:27:38.042Z,20.27
2018-06-08T02:30:07.117Z,20.90
2018-06-08T02:32:36.042Z,20.23
2018-06-08T02:35:08.165Z,21.17
2018-06-08T02:37:37.332Z,20.67
2018-06-08T02:40:06.575Z,20.43
2018-06-08T02:42:35.567Z,21.20
2018-06-08T02:45:08.530Z,21.07
2018-06-08T02:47:38.566Z,20.70
2018-06-08T02:50:07.584Z,22.00
2018-06-08T02:52:36.692Z,21.27
2018-06-08T02:55:09.263Z,21.73
2018-06-08T02:57:38.330Z,22.27
2018-06-08T03:00:07.635Z,22.60
2018-06-08T03:02:36.729Z,22.73
2018-06-08T03:05:10.759Z,22.17
2018-06-08T03:07:40.073Z,23.63
2018-06-08T03:10:09.213Z,21.53
2018-06-08T03:12:38.440Z,23.17
2018-06-08T03:15:10.398Z,23.23
2018-06-08T03:17:39.711Z,24.80
2018-06-08T03:20:11.487Z,23.90
2018-06-08T03:22:40.794Z,21.63
2018-06-08T03:25:10.152Z,22.00
2018-06-08T03:27:39.248Z,21.30
2018-06-08T03:30:08.355Z,22.13
2018-06-08T03:32:37.606Z,21.83
2018-06-08T03:35:06.772Z,22.00
2018-06-08T03:37:36.133Z,21.17
2018-06-08T03:40:05.340Z,22.43
2018-06-08T03:42:35.091Z,21.50
2018-06-08T03:45:07.405Z,21.57
2018-06-08T03:47:36.354Z,23.70
2018-06-08T03:50:05.610Z,21.77
2018-06-08T03:52:35.530Z,21.90
2018-06-08T03:55:08.448Z,21.90
2018-06-08T03:57:37.531Z,21.23
2018-06-08T04:00:06.997Z,20.93
2018-06-08T04:02:36.106Z,23.83
2018-06-08T04:05:08.952Z,24.37
2018-06-08T04:07:38.187Z,22.90
2018-06-08T04:10:07.136Z,22.47
2018-06-08T04:12:36.364Z,23.23
2018-06-08T04:15:07.543Z,22.53
2018-06-08T04:17:39.747Z,22.47
2018-06-08T04:20:09.080Z,21.80
2018-06-08T04:22:38.013Z,23.87
2018-06-08T04:25:08.403Z,24.50
2018-06-08T04:27:37.483Z,24.90
2018-06-08T04:30:07.234Z,24.67
2018-06-08T04:32:36.166Z,26.17
2018-06-08T04:35:08.917Z,25.20
2018-06-08T04:37:38.156Z,25.53
2018-06-08T04:40:07.084Z,26.27
2018-06-08T04:42:36.161Z,25.13
2018-06-08T04:45:08.847Z,25.37
2018-06-08T04:47:38.027Z,24.90
2018-06-08T04:50:08.157Z,27.37
2018-06-08T04:52:37.267Z,26.67
2018-06-08T04:55:07.546Z,28.87
2018-06-08T04:57:36.772Z,28.80
2018-06-08T05:00:06.120Z,29.70
2018-06-08T05:02:35.185Z,29.40
2018-06-08T05:05:07.453Z,31.13
2018-06-08T05:07:36.372Z,28.33
2018-06-08T05:10:05.481Z,28.83
2018-06-08T05:12:35.744Z,30.80
2018-06-08T05:15:08.754Z,29.90
2018-06-08T05:17:38.041Z,31.50
2018-06-08T05:20:06.984Z,31.83
2018-06-08T05:22:36.910Z,30.87
2018-06-08T05:25:07.592Z,34.30
2018-06-08T05:27:36.665Z,31.10
2018-06-08T05:30:13.866Z,31.53
2018-06-08T05:32:43.114Z,31.37
2018-06-08T05:35:14.770Z,30.83
2018-06-08T05:37:44.019Z,30.63
2018-06-08T05:40:13.332Z,31.00
2018-06-08T05:42:42.403Z,29.70
2018-06-08T15:58:42.338Z,20.63
2018-06-08T16:01:11.696Z,19.13
2018-06-08T16:03:40.947Z,19.83
2018-06-08T16:06:10.273Z,19.80
2018-06-08T16:08:39.339Z,18.87
2018-06-08T16:11:08.561Z,20.17
2018-06-08T16:13:37.716Z,19.67
2018-06-08T16:16:06.883Z,20.43
2018-06-08T16:18:36.214Z,21.40
2018-06-08T16:21:05.250Z,22.27
2018-06-08T16:23:34.186Z,23.87
2018-06-08T16:26:03.482Z,24.03
2018-06-08T16:28:33.112Z,24.53
2018-06-08T16:31:02.183Z,22.07
2018-06-08T16:33:31.402Z,96.17
2018-06-08T16:36:00.683Z,44.63
2018-06-08T16:38:30.447Z,24.87
2018-06-08T16:41:00.213Z,24.00
2018-06-08T16:43:29.358Z,23.90
2018-06-08T16:45:58.471Z,23.43
2018-06-08T16:48:27.734Z,24.03
2018-06-08T16:50:57.578Z,23.07
2018-06-08T16:53:26.903Z,23.63
2018-06-08T16:55:56.404Z,23.90
2018-06-08T16:58:25.682Z,24.97
2018-06-08T17:00:55.263Z,24.43
2018-06-08T17:03:24.973Z,25.73
2018-06-08T17:05:54.075Z,23.53
2018-06-08T17:08:23.200Z,25.13
2018-06-08T17:10:52.677Z,24.77
2018-06-08T17:13:21.926Z,24.10
2018-06-08T17:15:51.060Z,42.37
2018-06-08T17:18:20.313Z,31.07
2018-06-08T17:20:49.356Z,29.37
2018-06-08T17:23:18.540Z,26.27
2018-06-08T17:25:47.756Z,27.07
2018-06-08T17:28:16.927Z,27.33
2018-06-08T17:30:46.060Z,29.03
2018-06-08T17:33:15.574Z,56.67
2018-06-08T17:35:44.747Z,35.23
2018-06-08T17:38:14.054Z,28.50
2018-06-08T17:40:43.754Z,26.33
2018-06-08T17:43:12.898Z,31.77
2018-06-08T17:45:42.489Z,31.03
2018-06-08T17:48:11.520Z,35.07
2018-06-08T17:50:40.741Z,29.30
2018-06-08T17:53:10.215Z,30.37
2018-06-08T17:55:39.464Z,30.53
2018-06-08T17:58:08.567Z,32.03
2018-06-08T18:00:38.218Z,31.23
2018-06-08T18:03:07.499Z,31.77
2018-06-08T18:05:36.556Z,33.80
2018-06-08T18:08:06.075Z,33.87
2018-06-08T18:10:35.176Z,34.17
2018-06-08T18:13:04.528Z,211.20
2018-06-08T18:15:33.763Z,36.03
2018-06-08T18:18:03.273Z,38.27
2018-06-08T18:20:32.347Z,36.10
2018-06-08T18:23:01.487Z,36.53
2018-06-08T18:25:30.544Z,38.23
2018-06-08T18:27:59.694Z,37.37
2018-06-08T18:30:28.742Z,37.73
2018-06-08T18:32:57.933Z,36.53
2018-06-08T18:35:27.019Z,38.53
2018-06-08T18:37:56.579Z,35.60
2018-06-08T18:40:26.638Z,181.60
2018-06-08T18:42:55.751Z,73.67
2018-06-08T18:45:25.264Z,43.73
2018-06-08T18:47:54.370Z,38.50
2018-06-08T18:50:23.536Z,40.87
2018-06-08T18:52:52.647Z,38.07
2018-06-08T18:55:21.988Z,67.63
2018-06-08T18:57:51.268Z,45.33
2018-06-08T19:00:21.174Z,41.83
2018-06-08T19:02:50.508Z,46.37
2018-06-08T19:05:19.950Z,49.67
2018-06-08T19:07:49.100Z,44.40
2018-06-08T19:10:18.322Z,47.03
2018-06-08T19:12:47.564Z,57.43
2018-06-08T19:15:17.076Z,47.63
2018-06-08T19:17:46.523Z,46.23
2018-06-08T19:20:15.474Z,47.73
2018-06-08T19:22:44.976Z,45.87
2018-06-08T19:25:14.278Z,47.43
2018-06-08T19:27:43.401Z,43.57
2018-06-08T19:30:12.701Z,54.00
2018-06-08T19:32:42.017Z,49.67
2018-06-08T19:35:11.282Z,49.83
2018-06-08T19:37:40.360Z,82.40
2018-06-08T19:40:09.597Z,105.13
2018-06-08T19:42:39.232Z,52.27
2018-06-08T19:45:08.371Z,64.93
2018-06-08T19:47:37.440Z,65.93
2018-06-08T19:50:06.810Z,52.70
2018-06-08T19:52:36.088Z,52.57
2018-06-08T19:55:05.420Z,55.60
2018-06-08T19:57:34.656Z,54.60
2018-06-08T20:00:07.440Z,53.90
2018-06-08T20:02:36.543Z,55.30
2018-06-08T20:05:05.735Z,52.07
2018-06-08T20:07:35.129Z,55.37
2018-06-08T20:10:07.019Z,53.90
2018-06-08T20:12:36.063Z,52.33
2018-06-08T20:15:06.011Z,56.07
2018-06-08T20:17:35.082Z,56.37
2018-06-08T20:20:07.883Z,55.57
2018-06-08T20:22:37.011Z,60.40
2018-06-08T20:25:06.286Z,57.80
2018-06-08T20:27:35.563Z,58.63
2018-06-08T20:30:08.763Z,57.73
2018-06-08T20:32:37.852Z,60.97
2018-06-08T20:35:07.023Z,59.97
2018-06-08T20:37:36.257Z,62.47
2018-06-08T20:40:07.690Z,62.47
2018-06-08T20:42:37.227Z,64.47
2018-06-08T20:45:06.733Z,62.33
2018-06-08T20:47:35.795Z,65.27
2018-06-08T20:50:08.022Z,64.40
2018-06-08T20:52:37.679Z,65.43
2018-06-08T20:55:06.805Z,64.70
2018-06-08T20:57:36.126Z,68.80
2018-06-08T21:00:09.302Z,65.60
2018-06-08T21:02:40.423Z,67.20
2018-06-08T21:05:09.927Z,68.10
2018-06-08T21:07:38.989Z,63.43
2018-06-08T21:10:08.236Z,66.03
2018-06-08T21:12:37.310Z,70.80
2018-06-08T21:15:06.425Z,76.70
2018-06-08T21:17:35.675Z,76.13
2018-06-08T21:20:08.887Z,69.17
2018-06-08T21:22:37.988Z,68.30
2018-06-08T21:25:07.091Z,74.17
2018-06-08T21:27:36.175Z,73.80
2018-06-08T21:30:09.011Z,67.57
2018-06-08T21:32:38.052Z,72.03
2018-06-08T21:35:06.984Z,136.73
2018-06-08T21:37:36.266Z,89.47
2018-06-08T21:40:08.609Z,75.80
2018-06-08T21:42:37.928Z,78.20
2018-06-08T21:45:07.051Z,75.40
2018-06-08T21:47:36.527Z,86.67
2018-06-08T21:50:07.569Z,76.73
2018-06-08T21:52:36.674Z,81.13
2018-06-08T21:55:06.139Z,82.90
2018-06-08T21:57:36.330Z,82.33
2018-06-08T22:00:07.272Z,78.07
2018-06-08T22:02:37.369Z,75.60
2018-06-08T22:05:06.434Z,77.80
2018-06-08T22:07:35.487Z,75.00
2018-06-08T22:10:08.534Z,74.67
2018-06-08T22:12:37.479Z,76.73
2018-06-08T22:15:06.931Z,79.60
2018-06-08T22:17:36.004Z,79.83
2018-06-08T22:20:08.957Z,79.13
2018-06-08T22:22:38.394Z,74.47
2018-06-08T22:25:07.475Z,86.77
2018-06-08T22:27:36.611Z,125.47
2018-06-08T22:30:07.419Z,102.90
2018-06-08T22:32:36.530Z,89.70
2018-06-08T22:35:05.988Z,105.20
2018-06-08T22:37:35.323Z,84.03
2018-06-08T22:40:08.611Z,87.90
2018-06-08T22:42:37.746Z,81.13
2018-06-08T22:45:06.999Z,80.10
2018-06-08T22:47:36.143Z,83.57
2018-06-08T22:50:08.884Z,76.57
2018-06-08T22:52:37.811Z,86.80
2018-06-08T22:55:06.910Z,85.50
2018-06-08T22:57:36.154Z,79.77
2018-06-08T23:00:09.205Z,83.27
2018-06-08T23:02:38.467Z,77.37
2018-06-08T23:05:07.543Z,79.13
2018-06-08T23:07:36.895Z,124.27
2018-06-08T23:10:07.460Z,86.00
2018-06-08T23:12:36.740Z,81.17
2018-06-08T23:15:06.347Z,80.20
2018-06-08T23:17:35.351Z,86.90
2018-06-08T23:20:08.473Z,79.17
2018-06-08T23:22:37.606Z,81.20
2018-06-08T23:25:06.878Z,84.53
2018-06-08T23:27:35.959Z,84.13
2018-06-08T23:30:07.047Z,82.63
2018-06-08T23:32:36.338Z,83.83
2018-06-08T23:35:05.426Z,81.90
2018-06-08T23:37:34.736Z,84.40
2018-06-08T23:40:07.792Z,87.20
2018-06-08T23:42:36.905Z,86.03
2018-06-08T23:45:06.275Z,82.83
2018-06-08T23:47:36.343Z,84.17
2018-06-08T23:50:07.031Z,81.70
2018-06-08T23:52:36.009Z,82.37
2018-06-08T23:55:05.225Z,86.17
2018-06-08T23:57:34.376Z,90.57
